createdAt,value
2022-08-23T00:02:16.718Z,10.90
2022-08-23T00:05:07.701Z,10.90
2022-08-23T00:07:39.412Z,10.90
2022-08-23T00:10:09.592Z,10.90
2022-08-23T00:12:37.570Z,10.80
2022-08-23T00:15:06.515Z,10.80
2022-08-23T00:17:35.156Z,10.80
2022-08-23T00:20:11.474Z,10.80
2022-08-23T00:22:40.175Z,10.80
2022-08-23T00:25:10.071Z,10.80
2022-08-23T00:27:37.930Z,10.80
2022-08-23T00:30:07.995Z,10.80
2022-08-23T00:32:37.386Z,10.80
2022-08-23T00:35:06.058Z,10.80
2022-08-23T00:37:33.938Z,10.90
2022-08-23T00:40:01.943Z,10.90
2022-08-23T00:43:03.201Z,11.00
2022-08-23T00:46:28.750Z,11.00
2022-08-23T00:48:57.302Z,10.90
2022-08-23T00:51:32.495Z,10.90
2022-08-23T00:54:20.011Z,10.80
2022-08-23T00:56:47.470Z,10.90
2022-08-23T00:59:14.488Z,10.80
2022-08-23T01:01:43.751Z,10.80
2022-08-23T01:04:13.199Z,10.80
2022-08-23T01:06:48.243Z,10.80
2022-08-23T01:09:21.331Z,10.80
2022-08-23T01:12:04.755Z,10.80
2022-08-23T01:15:03.228Z,10.80
2022-08-23T01:17:42.366Z,10.70
2022-08-23T01:20:18.716Z,10.70
2022-08-23T01:22:53.773Z,10.70
2022-08-23T01:25:22.998Z,10.60
2022-08-23T01:27:51.231Z,10.60
2022-08-23T01:30:22.603Z,10.60
2022-08-23T01:32:59.308Z,10.70
2022-08-23T01:35:59.172Z,10.70
2022-08-23T01:38:27.169Z,10.70
2022-08-23T01:40:57.493Z,10.60
2022-08-23T01:43:24.810Z,10.60
2022-08-23T01:45:53.494Z,10.50
2022-08-23T01:48:21.588Z,10.50
2022-08-23T01:50:48.906Z,10.50
2022-08-23T01:53:16.111Z,10.50
2022-08-23T01:55:44.058Z,10.50
2022-08-23T01:58:11.357Z,10.50
2022-08-23T02:00:41.460Z,10.50
2022-08-23T02:03:09.368Z,10.60
2022-08-23T02:05:37.404Z,10.70
2022-08-23T02:08:25.351Z,10.60
2022-08-23T02:10:52.884Z,10.60
2022-08-23T02:13:20.385Z,10.60
2022-08-23T02:15:51.301Z,10.50
2022-08-23T02:18:20.575Z,10.60
2022-08-23T02:20:51.235Z,10.60
2022-08-23T02:23:19.250Z,10.60
2022-08-23T02:25:46.688Z,10.50
2022-08-23T02:28:13.691Z,10.60
2022-08-23T02:30:40.818Z,10.60
2022-08-23T02:33:08.924Z,10.60
2022-08-23T02:35:38.320Z,10.60
2022-08-23T02:38:07.199Z,10.60
2022-08-23T02:40:35.749Z,10.60
2022-08-23T02:43:03.961Z,10.60
2022-08-23T02:45:31.157Z,10.50
2022-08-23T02:47:58.170Z,10.60
2022-08-23T02:50:25.637Z,10.70
2022-08-23T02:52:54.007Z,10.60
2022-08-23T02:55:21.597Z,10.60
2022-08-23T02:57:48.770Z,10.60
2022-08-23T03:00:18.052Z,10.50
2022-08-23T03:02:45.653Z,10.50
2022-08-23T03:05:13.618Z,10.40
2022-08-23T03:07:41.305Z,10.40
2022-08-23T03:10:09.605Z,10.40
2022-08-23T03:12:36.981Z,10.30
2022-08-23T03:15:05.739Z,10.30
2022-08-23T03:17:33.236Z,10.30
2022-08-23T03:20:00.219Z,10.30
2022-08-23T03:22:27.232Z,10.20
2022-08-23T03:24:54.281Z,10.20
2022-08-23T03:27:21.293Z,10.20
2022-08-23T03:29:48.332Z,10.20
2022-08-23T03:32:16.044Z,10.10
2022-08-23T03:34:44.854Z,10.10
2022-08-23T03:37:12.151Z,10.10
2022-08-23T03:39:39.280Z,10.00
2022-08-23T03:42:06.933Z,10.00
2022-08-23T03:44:34.299Z,10.10
2022-08-23T03:47:02.207Z,10.10
2022-08-23T03:49:29.512Z,10.00
2022-08-23T03:51:56.710Z,10.20
2022-08-23T03:54:24.005Z,10.20
2022-08-23T03:57:03.474Z,10.20
2022-08-23T03:59:33.015Z,10.20
2022-08-23T04:02:00.271Z,10.30
2022-08-23T04:04:28.411Z,10.30
2022-08-23T04:06:56.405Z,10.40
2022-08-23T04:09:23.456Z,10.40
2022-08-23T04:11:52.244Z,10.40
2022-08-23T04:14:19.722Z,10.50
2022-08-23T04:16:46.836Z,10.50
2022-08-23T04:19:15.263Z,10.50
2022-08-23T04:21:45.882Z,10.50
2022-08-23T04:24:12.912Z,10.50
2022-08-23T04:26:40.519Z,10.60
2022-08-23T04:29:08.546Z,10.60
2022-08-23T04:31:37.423Z,10.70
2022-08-23T04:34:06.061Z,10.70
2022-08-23T04:36:37.560Z,10.70
2022-08-23T04:39:05.478Z,10.80
2022-08-23T04:45:01.673Z,11.60
2022-08-23T04:47:28.651Z,11.70
2022-08-23T04:49:55.587Z,11.60
2022-08-23T04:52:22.579Z,11.50
2022-08-23T04:54:49.735Z,11.40
2022-08-23T04:57:16.942Z,11.40
2022-08-23T04:59:44.007Z,11.40
2022-08-23T05:02:11.025Z,11.60
2022-08-23T05:04:38.019Z,11.80
2022-08-23T05:07:05.088Z,12.00
2022-08-23T05:09:32.083Z,12.20
2022-08-23T05:11:59.142Z,12.30
2022-08-23T05:14:26.204Z,12.30
2022-08-23T05:16:53.179Z,12.30
2022-08-23T05:19:20.470Z,12.30
2022-08-23T05:21:47.575Z,12.40
2022-08-23T05:24:14.632Z,12.40
2022-08-23T05:26:41.715Z,12.40
2022-08-23T05:29:09.101Z,12.60
2022-08-23T05:31:36.150Z,12.80
2022-08-23T05:34:03.624Z,13.00
2022-08-23T05:36:30.633Z,13.20
2022-08-23T05:38:57.627Z,13.30
2022-08-23T05:41:29.107Z,13.40
2022-08-23T05:44:05.177Z,13.70
2022-08-23T05:46:32.174Z,13.80
2022-08-23T05:48:59.138Z,13.90
2022-08-23T05:51:29.020Z,14.00
2022-08-23T05:54:00.309Z,14.10
2022-08-23T05:56:30.168Z,14.20
2022-08-23T05:59:00.111Z,14.30
2022-08-23T06:01:29.367Z,14.40
2022-08-23T06:03:58.569Z,14.40
2022-08-23T06:06:36.945Z,14.50
2022-08-23T06:09:06.926Z,14.60
2022-08-23T06:11:34.120Z,14.70
2022-08-23T06:14:03.878Z,14.80
2022-08-23T06:16:37.700Z,15.00
2022-08-23T06:19:06.463Z,15.20
2022-08-23T06:21:34.335Z,15.40
2022-08-23T06:24:01.736Z,15.60
2022-08-23T06:26:34.734Z,15.70
2022-08-23T06:29:06.077Z,15.80
2022-08-23T06:31:46.947Z,16.00
2022-08-23T06:34:27.844Z,16.30
2022-08-23T06:36:57.075Z,16.50
2022-08-23T06:39:26.744Z,16.70
2022-08-23T06:41:57.108Z,17.00
2022-08-23T06:44:24.123Z,17.20
2022-08-23T06:46:51.231Z,17.40
2022-08-23T06:49:18.270Z,17.80
2022-08-23T06:51:53.727Z,18.10
2022-08-23T06:54:23.780Z,18.30
2022-08-23T06:56:54.199Z,18.40
2022-08-23T06:59:21.545Z,18.60
2022-08-23T07:02:04.203Z,18.70
2022-08-23T07:04:38.189Z,18.90
2022-08-23T07:07:11.367Z,19.10
2022-08-23T07:09:40.635Z,19.50
2022-08-23T07:12:08.079Z,20.20
2022-08-23T07:14:36.531Z,19.80
2022-08-23T07:17:04.476Z,20.10
2022-08-23T07:19:33.803Z,20.30
2022-08-23T07:22:01.744Z,20.60
2022-08-23T07:24:33.352Z,20.50
2022-08-23T07:27:03.949Z,20.90
2022-08-23T07:29:31.015Z,20.90
2022-08-23T07:31:58.249Z,20.50
2022-08-23T07:34:26.212Z,20.40
2022-08-23T07:36:54.380Z,20.60
2022-08-23T07:39:22.930Z,20.90
2022-08-23T07:41:52.669Z,21.40
2022-08-23T07:44:21.158Z,21.40
2022-08-23T07:46:54.811Z,21.80
2022-08-23T07:49:22.151Z,22.40
2022-08-23T07:51:51.461Z,22.80
2022-08-23T07:54:21.258Z,23.20
2022-08-23T07:56:48.377Z,23.30
2022-08-23T07:59:15.474Z,24.10
2022-08-23T08:01:44.235Z,24.60
2022-08-23T08:04:12.537Z,24.60
2022-08-23T08:06:42.730Z,25.20
2022-08-23T08:09:10.903Z,25.30
2022-08-23T08:11:38.407Z,25.50
2022-08-23T08:14:07.822Z,26.10
2022-08-23T08:16:38.462Z,25.90
2022-08-23T08:19:09.569Z,26.30
2022-08-23T08:21:39.685Z,26.60
2022-08-23T08:24:11.360Z,26.10
2022-08-23T08:26:38.878Z,26.00
2022-08-23T08:29:06.638Z,26.90
2022-08-23T08:31:34.525Z,26.90
2022-08-23T08:34:01.603Z,27.80
2022-08-23T08:36:47.889Z,28.30
2022-08-23T08:39:18.787Z,28.10
2022-08-23T08:41:45.724Z,27.90
2022-08-23T08:44:40.202Z,27.80
2022-08-23T08:47:17.411Z,27.50
2022-08-23T08:50:02.404Z,28.40
2022-08-23T08:52:38.255Z,29.20
2022-08-23T08:55:18.153Z,29.50
2022-08-23T08:57:47.408Z,29.00
2022-08-23T09:00:20.527Z,28.40
2022-08-23T09:02:48.086Z,28.20
2022-08-23T09:05:36.972Z,28.20
2022-08-23T09:08:04.097Z,29.00
2022-08-23T09:10:34.112Z,29.30
2022-08-23T09:13:18.098Z,29.80
2022-08-23T09:15:56.155Z,30.20
2022-08-23T09:18:24.410Z,30.10
2022-08-23T09:20:54.835Z,29.40
2022-08-23T09:23:46.628Z,30.10
2022-08-23T09:26:30.200Z,30.20
2022-08-23T09:29:08.730Z,31.00
2022-08-23T09:31:41.974Z,31.60
2022-08-23T09:34:12.122Z,31.50
2022-08-23T09:36:39.625Z,31.30
2022-08-23T09:39:31.514Z,30.60
2022-08-23T09:41:59.362Z,30.50
2022-08-23T09:44:35.762Z,31.10
2022-08-23T09:47:09.010Z,30.60
2022-08-23T09:49:36.176Z,29.20
2022-08-23T09:52:22.194Z,28.60
2022-08-23T09:55:03.103Z,27.90
2022-08-23T09:57:33.339Z,28.30
2022-08-23T10:00:25.102Z,29.20
2022-08-23T10:02:57.458Z,29.90
2022-08-23T10:05:38.915Z,31.40
2022-08-23T10:08:10.277Z,32.20
2022-08-23T10:10:50.915Z,31.60
2022-08-23T10:13:18.409Z,31.20
2022-08-23T10:16:11.889Z,31.30
2022-08-23T10:18:57.753Z,31.80
2022-08-23T10:21:43.362Z,32.20
2022-08-23T10:24:22.639Z,32.30
2022-08-23T10:27:52.954Z,31.80
2022-08-23T10:30:26.308Z,30.90
2022-08-23T10:33:18.501Z,30.00
2022-08-23T10:35:57.697Z,29.70
2022-08-23T10:38:40.199Z,30.40
2022-08-23T10:41:13.770Z,30.60
2022-08-23T10:44:21.146Z,31.20
2022-08-23T10:47:16.464Z,30.60
2022-08-23T10:49:45.919Z,31.10
2022-08-23T10:52:18.503Z,31.90
2022-08-23T10:55:00.273Z,32.60
2022-08-23T10:57:36.204Z,33.00
2022-08-23T11:00:09.111Z,33.60
2022-08-23T11:03:06.921Z,31.20
2022-08-23T11:05:36.510Z,29.40
2022-08-23T11:08:08.212Z,29.10
2022-08-23T11:10:39.130Z,28.90
2022-08-23T11:13:15.791Z,29.10
2022-08-23T11:15:58.619Z,29.80
2022-08-23T11:18:45.590Z,30.30
2022-08-23T11:21:18.390Z,30.30
2022-08-23T11:23:50.768Z,29.90
2022-08-23T11:26:26.579Z,30.00
2022-08-23T11:29:22.631Z,31.20
2022-08-23T11:32:02.408Z,31.80
2022-08-23T11:34:59.912Z,31.30
2022-08-23T11:37:47.412Z,31.30
2022-08-23T11:40:18.456Z,31.90
2022-08-23T11:42:52.401Z,32.70
2022-08-23T11:45:22.905Z,33.60
2022-08-23T11:48:05.448Z,32.80
2022-08-23T11:51:00.931Z,33.20
2022-08-23T11:53:34.475Z,33.50
2022-08-23T11:56:01.387Z,33.70
2022-08-23T11:58:43.910Z,33.40
2022-08-23T12:01:14.068Z,33.00
2022-08-23T12:04:09.594Z,32.90
2022-08-23T12:06:40.517Z,32.50
2022-08-23T12:09:35.885Z,31.70
2022-08-23T12:12:08.976Z,31.50
2022-08-23T12:14:50.316Z,31.40
2022-08-23T12:17:18.324Z,31.70
2022-08-23T12:19:51.288Z,31.60
2022-08-23T12:22:28.709Z,31.10
2022-08-23T12:25:06.953Z,30.40
2022-08-23T12:27:46.422Z,30.20
2022-08-23T12:30:42.416Z,29.10
2022-08-23T12:33:47.963Z,28.50
2022-08-23T12:36:33.265Z,28.20
2022-08-23T12:39:26.074Z,28.20
2022-08-23T12:42:13.890Z,28.20
2022-08-23T12:44:41.711Z,28.60
2022-08-23T12:47:14.445Z,28.20
2022-08-23T12:49:41.878Z,27.80
2022-08-23T12:52:11.633Z,27.60
2022-08-23T12:54:41.531Z,27.80
2022-08-23T12:57:13.987Z,28.10
2022-08-23T13:00:18.864Z,27.70
2022-08-23T13:03:01.685Z,26.20
2022-08-23T13:05:34.147Z,26.10
2022-08-23T13:08:04.892Z,27.00
2022-08-23T13:10:32.213Z,27.10
2022-08-23T13:13:00.782Z,26.80
2022-08-23T13:16:02.423Z,26.70
2022-08-23T13:18:40.386Z,25.80
2022-08-23T13:21:27.670Z,25.30
2022-08-23T13:24:00.663Z,24.00
2022-08-23T13:26:42.564Z,23.50
2022-08-23T13:29:22.943Z,23.10
2022-08-23T13:32:03.082Z,23.70
2022-08-23T13:34:36.844Z,24.70
2022-08-23T13:37:23.603Z,24.20
2022-08-23T13:39:55.956Z,23.60
2022-08-23T13:42:48.431Z,23.10
2022-08-23T13:45:27.171Z,24.00
2022-08-23T13:48:10.763Z,24.50
2022-08-23T13:50:39.093Z,23.50
2022-08-23T13:53:15.376Z,22.80
2022-08-23T13:55:54.509Z,22.50
2022-08-23T13:58:33.010Z,21.90
2022-08-23T14:01:02.049Z,21.40
2022-08-23T14:03:31.563Z,21.60
2022-08-23T14:05:58.540Z,21.40
2022-08-23T14:08:25.499Z,21.40
2022-08-23T14:10:52.691Z,21.40
2022-08-23T14:13:22.963Z,21.20
2022-08-23T14:15:58.503Z,21.10
2022-08-23T14:18:37.039Z,21.10
2022-08-23T14:21:04.235Z,21.20
2022-08-23T14:23:31.685Z,21.40
2022-08-23T14:25:59.807Z,21.70
2022-08-23T14:28:29.712Z,21.70
2022-08-23T14:30:57.565Z,21.70
2022-08-23T14:33:25.126Z,21.60
2022-08-23T14:35:52.495Z,21.60
2022-08-23T14:38:19.928Z,21.40
2022-08-23T14:40:55.891Z,21.50
2022-08-23T14:43:23.593Z,21.60
2022-08-23T14:45:54.488Z,21.50
2022-08-23T14:48:23.380Z,21.30
2022-08-23T14:50:51.262Z,21.30
2022-08-23T14:53:22.355Z,21.50
2022-08-23T14:56:12.338Z,21.20
2022-08-23T14:58:41.936Z,21.40
2022-08-23T15:01:09.778Z,21.30
2022-08-23T15:03:36.874Z,21.30
2022-08-23T15:06:04.028Z,20.90
2022-08-23T15:08:31.059Z,21.00
2022-08-23T15:13:55.275Z,20.50
2022-08-23T15:16:23.909Z,20.50
2022-08-23T15:18:52.119Z,20.50
2022-08-23T15:21:19.884Z,20.70
2022-08-23T15:23:47.055Z,20.60
2022-08-23T15:26:17.738Z,20.70
2022-08-23T15:28:44.977Z,20.50
2022-08-23T15:31:13.158Z,20.50
2022-08-23T15:33:40.265Z,20.50
2022-08-23T15:36:08.675Z,20.50
2022-08-23T15:38:37.085Z,20.10
2022-08-23T15:41:05.307Z,19.80
2022-08-23T15:43:34.168Z,19.60
2022-08-23T15:46:16.793Z,19.40
2022-08-23T15:49:05.403Z,19.40
2022-08-23T15:51:32.519Z,19.40
2022-08-23T15:53:59.590Z,19.30
2022-08-23T15:56:35.270Z,19.30
2022-08-23T15:59:02.683Z,19.60
2022-08-23T16:01:33.616Z,19.80
2022-08-23T16:04:02.174Z,20.00
2022-08-23T16:06:34.398Z,20.10
2022-08-23T16:09:06.909Z,19.90
2022-08-23T16:11:34.034Z,19.70
2022-08-23T16:14:01.092Z,19.50
2022-08-23T16:16:34.253Z,19.30
2022-08-23T16:19:01.658Z,19.10
2022-08-23T16:21:30.807Z,19.10
2022-08-23T16:23:59.004Z,19.00
2022-08-23T16:26:35.196Z,18.90
2022-08-23T16:29:04.759Z,18.90
2022-08-23T16:31:38.829Z,18.80
2022-08-23T16:34:09.348Z,18.80
2022-08-23T16:36:36.914Z,18.70
2022-08-23T16:39:05.399Z,18.70
2022-08-23T16:41:32.530Z,18.60
2022-08-23T16:44:00.154Z,18.40
2022-08-23T16:46:28.937Z,18.40
2022-08-23T16:48:55.953Z,18.40
2022-08-23T16:51:23.347Z,18.40
2022-08-23T16:54:01.722Z,18.40
2022-08-23T16:56:34.160Z,18.40
2022-08-23T16:59:02.232Z,18.40
2022-08-23T17:01:30.006Z,18.30
2022-08-23T17:03:57.116Z,18.20
2022-08-23T17:06:24.114Z,18.10
2022-08-23T17:08:51.098Z,18.10
2022-08-23T17:11:19.389Z,18.00
2022-08-23T17:13:47.506Z,18.00
2022-08-23T17:16:14.747Z,18.00
2022-08-23T17:18:41.864Z,18.00
2022-08-23T17:21:09.362Z,18.00
2022-08-23T17:23:37.730Z,17.90
2022-08-23T17:26:09.459Z,17.90
2022-08-23T17:28:36.490Z,17.80
2022-08-23T17:31:03.483Z,17.70
2022-08-23T17:33:30.511Z,17.70
2022-08-23T17:35:57.579Z,17.70
2022-08-23T17:38:24.647Z,17.70
2022-08-23T17:40:51.656Z,17.70
2022-08-23T17:43:18.807Z,17.80
2022-08-23T17:45:49.583Z,17.70
2022-08-23T17:48:18.324Z,17.70
2022-08-23T17:50:46.535Z,17.60
2022-08-23T17:53:15.423Z,17.60
2022-08-23T17:55:43.084Z,17.50
2022-08-23T17:58:10.637Z,17.40
2022-08-23T18:00:39.208Z,17.40
2022-08-23T18:03:06.999Z,17.30
2022-08-23T18:05:35.097Z,17.20
2022-08-23T18:08:02.207Z,17.10
2022-08-23T18:10:30.180Z,17.10
2022-08-23T18:12:58.107Z,17.00
2022-08-23T18:15:25.593Z,17.00
2022-08-23T18:17:55.429Z,16.90
2022-08-23T18:20:29.242Z,16.90
2022-08-23T18:22:58.337Z,16.80
2022-08-23T18:25:26.106Z,16.80
2022-08-23T18:28:09.355Z,16.70
2022-08-23T18:30:46.964Z,16.70
2022-08-23T18:33:15.665Z,16.60
2022-08-23T18:35:42.820Z,16.60
2022-08-23T18:38:12.492Z,16.60
2022-08-23T18:40:47.127Z,16.60
2022-08-23T18:43:20.777Z,16.50
2022-08-23T18:45:50.731Z,16.50
2022-08-23T18:48:18.797Z,16.40
2022-08-23T18:50:46.412Z,16.40
2022-08-23T18:53:14.365Z,16.40
2022-08-23T18:55:41.781Z,16.30
2022-08-23T18:58:08.886Z,16.30
2022-08-23T19:00:37.783Z,16.30
2022-08-23T19:03:06.960Z,16.20
2022-08-23T19:05:41.501Z,16.20
2022-08-23T19:08:10.076Z,16.20
2022-08-23T19:10:37.928Z,16.20
2022-08-23T19:13:05.775Z,16.10
2022-08-23T19:15:35.151Z,16.10
2022-08-23T19:18:03.107Z,16.00
2022-08-23T19:20:30.282Z,16.00
2022-08-23T19:22:57.667Z,16.00
2022-08-23T19:25:24.992Z,15.90
2022-08-23T19:27:52.194Z,15.90
2022-08-23T19:30:19.264Z,15.80
2022-08-23T19:32:47.178Z,15.80
2022-08-23T19:35:14.592Z,15.80
2022-08-23T19:37:41.564Z,15.70
2022-08-23T19:40:09.241Z,15.70
2022-08-23T19:42:37.749Z,15.70
2022-08-23T19:45:05.633Z,15.60
2022-08-23T19:47:33.160Z,15.60
2022-08-23T19:50:00.253Z,15.50
2022-08-23T19:52:27.341Z,15.50
2022-08-23T19:54:57.960Z,15.50
2022-08-23T19:57:32.866Z,15.40
2022-08-23T20:00:01.161Z,15.40
2022-08-23T20:02:28.535Z,15.50
2022-08-23T20:04:55.588Z,15.40
2022-08-23T20:07:22.652Z,15.40
2022-08-23T20:09:49.618Z,15.40
2022-08-23T20:12:17.386Z,15.30
2022-08-23T20:14:45.129Z,15.30
2022-08-23T20:17:13.597Z,15.30
2022-08-23T20:19:41.901Z,15.30
2022-08-23T20:22:27.384Z,15.30
2022-08-23T20:24:54.422Z,15.30
2022-08-23T20:27:24.490Z,15.20
2022-08-23T20:30:01.620Z,15.30
2022-08-23T20:32:29.368Z,15.20
2022-08-23T20:34:56.398Z,15.20
2022-08-23T20:37:23.405Z,15.20
2022-08-23T20:39:50.440Z,15.10
2022-08-23T20:42:17.412Z,15.10
2022-08-23T20:44:44.525Z,15.10
2022-08-23T20:47:12.903Z,15.10
2022-08-23T20:49:40.118Z,15.10
2022-08-23T20:52:07.283Z,15.10
2022-08-23T20:54:34.504Z,15.10
2022-08-23T20:57:01.559Z,15.10
2022-08-23T20:59:28.575Z,15.20
2022-08-23T21:01:55.598Z,15.20
2022-08-23T21:04:22.719Z,15.20
2022-08-23T21:06:57.519Z,15.10
2022-08-23T21:09:28.969Z,15.10
2022-08-23T21:11:57.631Z,15.10
2022-08-23T21:14:24.722Z,15.20
2022-08-23T21:16:51.805Z,15.20
2022-08-23T21:19:19.175Z,15.10
2022-08-23T21:21:46.433Z,15.10
2022-08-23T21:24:13.495Z,15.20
2022-08-23T21:26:41.579Z,15.10
2022-08-23T21:29:10.215Z,15.10
2022-08-23T21:31:37.949Z,15.10
2022-08-23T21:34:05.208Z,15.10
2022-08-23T21:36:32.199Z,15.10
2022-08-23T21:38:59.221Z,15.10
2022-08-23T21:41:29.922Z,15.10
2022-08-23T21:43:57.021Z,15.10
2022-08-23T21:46:24.175Z,15.10
2022-08-23T21:48:51.184Z,15.00
2022-08-23T21:51:18.353Z,15.00
2022-08-23T21:53:45.528Z,14.90
2022-08-23T21:56:12.474Z,14.90
2022-08-23T21:58:39.808Z,14.90
2022-08-23T22:01:08.890Z,14.80
2022-08-23T22:03:36.574Z,14.70
2022-08-23T22:06:04.587Z,14.60
2022-08-23T22:08:32.061Z,14.60
2022-08-23T22:11:05.299Z,14.60
2022-08-23T22:13:32.496Z,14.60
2022-08-23T22:16:01.448Z,14.50
2022-08-23T22:18:29.970Z,14.50
2022-08-23T22:20:58.337Z,14.50
2022-08-23T22:23:27.096Z,14.50
2022-08-23T22:26:01.517Z,14.50
2022-08-23T22:28:32.421Z,14.60
2022-08-23T22:31:01.865Z,14.60
2022-08-23T22:33:29.443Z,14.70
2022-08-23T22:36:06.801Z,14.70
2022-08-23T22:38:33.919Z,14.80
2022-08-23T22:41:00.927Z,14.90
2022-08-23T22:43:28.459Z,14.90
2022-08-23T22:46:01.118Z,14.90
2022-08-23T22:48:30.871Z,14.90
2022-08-23T22:51:04.064Z,15.00
2022-08-23T22:53:31.109Z,15.00
2022-08-23T22:55:58.328Z,15.00
2022-08-23T22:58:25.364Z,15.00
2022-08-23T23:00:52.401Z,14.90
2022-08-23T23:03:19.377Z,15.00
2022-08-23T23:05:46.568Z,15.00
2022-08-23T23:08:28.706Z,15.00
2022-08-23T23:10:59.755Z,14.90
2022-08-23T23:13:29.507Z,15.00
2022-08-23T23:15:57.943Z,15.00
2022-08-23T23:18:26.327Z,15.00
2022-08-23T23:20:53.479Z,15.00
2022-08-23T23:23:22.451Z,15.10
2022-08-23T23:25:50.440Z,15.10
2022-08-23T23:28:18.867Z,15.00
2022-08-23T23:30:48.248Z,15.10
2022-08-23T23:33:15.617Z,15.00
2022-08-23T23:35:43.074Z,15.10
2022-08-23T23:38:10.619Z,15.00
2022-08-23T23:40:38.552Z,15.00
2022-08-23T23:43:05.758Z,15.00
2022-08-23T23:45:37.215Z,15.00
2022-08-23T23:48:04.522Z,15.00
2022-08-23T23:50:36.676Z,15.10
2022-08-23T23:53:08.684Z,15.10
2022-08-23T23:55:35.656Z,15.10
2022-08-23T23:58:02.734Z,15.10
